Frogtown, Illinois
Current Conditions -  °F | °C
As of 6:55 AM on Tuesday 21 Oct 2014 (Local Time) from KSLO Reporting Station
Haze Haze  
Wind Chill: 44°   Ceiling: 500
Heat Index: 44°   Visibility: 0.75mi
Dew Point: 44°   Wind: 0mph
Humidity: 98%   Direction: NA
Pressure: 30.07"   Gusts: NA
Location:  38.868°N, 88.8641°W
Report Text: KSLO 211155Z AUTO 00000KT 3/4SM BR VV005 07/07 A3007 RMK AO2 T00680065 10111 20065
Loading
Personal Weather Stations






























Interactive Weather Map
Tropical Storm Tracking
New forecast layout! Learn more

10-Day Weather Forecast

Advertisements
Track Severe Weather on mobile